createdAt,value
2018-04-27T00:00:03.979Z,99.90
2018-04-27T00:02:32.257Z,99.90
2018-04-27T00:05:00.529Z,99.90
2018-04-27T00:07:28.773Z,99.90
2018-04-27T00:09:57.023Z,99.90
2018-04-27T00:12:26.051Z,99.90
2018-04-27T00:14:54.312Z,99.90
2018-04-27T00:17:22.560Z,99.90
2018-04-27T00:19:50.939Z,99.90
2018-04-27T00:22:19.171Z,99.90
2018-04-27T00:24:47.420Z,99.90
2018-04-27T00:27:16.438Z,99.90
2018-04-27T00:29:44.703Z,99.90
2018-04-27T00:32:12.965Z,99.90
2018-04-27T00:34:41.972Z,99.90
2018-04-27T00:37:10.212Z,99.90
2018-04-27T00:39:38.467Z,99.90
2018-04-27T00:42:06.740Z,99.90
2018-04-27T00:44:34.964Z,99.90
2018-04-27T00:47:03.970Z,99.90
2018-04-27T00:49:32.242Z,99.90
2018-04-27T00:52:01.255Z,99.90
2018-04-27T00:54:29.523Z,99.90
2018-04-27T00:56:57.758Z,99.90
2018-04-27T00:59:26.012Z,99.90
2018-04-27T01:01:54.224Z,99.90
2018-04-27T01:04:22.476Z,99.90
2018-04-27T01:06:50.729Z,99.90
2018-04-27T01:09:18.995Z,99.90
2018-04-27T01:11:47.257Z,99.90
2018-04-27T01:14:16.313Z,99.90
2018-04-27T01:16:45.390Z,99.90
2018-04-27T01:19:13.638Z,99.90
2018-04-27T01:21:41.908Z,99.90
2018-04-27T01:24:10.947Z,99.90
2018-04-27T01:26:39.197Z,99.90
2018-04-27T01:29:07.440Z,99.90
2018-04-27T01:31:36.492Z,99.90
2018-04-27T01:34:04.704Z,99.90
2018-04-27T01:36:32.935Z,99.90
2018-04-27T01:39:01.185Z,99.90
2018-04-27T01:41:29.424Z,99.90
2018-04-27T01:43:57.660Z,99.90
2018-04-27T01:46:25.933Z,99.90
2018-04-27T01:48:54.155Z,99.90
2018-04-27T01:51:22.412Z,99.90
2018-04-27T01:53:50.661Z,99.90
2018-04-27T01:56:18.959Z,99.90
2018-04-27T01:58:47.219Z,99.90
2018-04-27T02:01:15.463Z,99.90
2018-04-27T02:03:44.481Z,99.90
2018-04-27T02:06:12.728Z,99.90
2018-04-27T02:08:41.751Z,99.90
2018-04-27T02:11:10.600Z,99.90
2018-04-27T02:13:38.876Z,99.90
2018-04-27T02:16:07.146Z,99.90
2018-04-27T02:18:35.442Z,99.90
2018-04-27T02:21:03.692Z,99.90
2018-04-27T02:23:31.966Z,99.90
2018-04-27T02:26:00.222Z,99.90
2018-04-27T02:28:28.468Z,99.90
2018-04-27T02:30:57.289Z,99.90
2018-04-27T02:33:25.618Z,99.90
2018-04-27T02:35:53.860Z,99.90
2018-04-27T02:38:22.093Z,99.90
2018-04-27T02:40:50.381Z,99.90
2018-04-27T02:43:20.149Z,99.90
2018-04-27T02:45:48.418Z,99.90
2018-04-27T02:48:16.649Z,99.90
2018-04-27T02:50:44.897Z,99.90
2018-04-27T02:53:13.899Z,99.90
2018-04-27T02:55:42.957Z,99.90
2018-04-27T02:58:11.170Z,99.90
2018-04-27T03:00:40.191Z,99.90
2018-04-27T03:03:08.433Z,99.90
2018-04-27T03:05:37.484Z,99.90
2018-04-27T03:08:05.713Z,99.90
2018-04-27T03:10:34.737Z,99.90
2018-04-27T03:13:03.746Z,99.90
2018-04-27T03:15:31.989Z,99.90
2018-04-27T03:18:00.987Z,99.90
2018-04-27T03:20:29.279Z,99.90
2018-04-27T03:22:57.519Z,99.90
2018-04-27T03:25:25.780Z,99.90
2018-04-27T03:27:54.023Z,99.90
2018-04-27T03:30:22.274Z,99.90
2018-04-27T03:32:51.271Z,99.90
2018-04-27T03:35:19.505Z,99.90
2018-04-27T03:37:47.780Z,99.90
2018-04-27T03:40:15.997Z,99.90
2018-04-27T03:42:44.254Z,99.90
2018-04-27T03:45:13.257Z,99.90
2018-04-27T03:47:42.265Z,99.90
2018-04-27T03:50:11.329Z,99.90
2018-04-27T03:52:39.579Z,99.90
2018-04-27T03:55:07.849Z,99.90
2018-04-27T03:57:36.103Z,99.90
2018-04-27T04:00:16.366Z,99.90
2018-04-27T04:02:56.613Z,99.90
2018-04-27T04:05:32.005Z,99.90
2018-04-27T04:08:00.277Z,99.90
2018-04-27T04:10:28.503Z,99.90
2018-04-27T04:12:56.780Z,99.90
2018-04-27T04:15:25.799Z,99.90
2018-04-27T04:17:54.093Z,99.90
2018-04-27T04:20:22.343Z,99.90
2018-04-27T04:22:51.376Z,99.90
2018-04-27T04:25:19.603Z,99.90
2018-04-27T04:27:47.891Z,99.90
2018-04-27T04:30:16.132Z,99.90
2018-04-27T04:32:44.509Z,99.90
2018-04-27T04:35:12.749Z,99.90
2018-04-27T04:37:41.037Z,99.90
2018-04-27T04:40:09.274Z,99.90
2018-04-27T04:42:37.527Z,99.90
2018-04-27T04:45:06.611Z,99.90
2018-04-27T04:47:34.824Z,99.90
2018-04-27T04:50:03.103Z,99.90
2018-04-27T04:52:31.473Z,99.90
2018-04-27T04:54:59.679Z,99.90
2018-04-27T04:57:27.951Z,99.90
2018-04-27T04:59:56.196Z,99.90
2018-04-27T05:02:24.472Z,99.90
2018-04-27T05:04:52.711Z,99.90
2018-04-27T05:07:20.998Z,99.90
2018-04-27T05:09:49.233Z,99.90
2018-04-27T05:12:17.553Z,99.90
2018-04-27T05:14:45.816Z,99.90
2018-04-27T05:17:14.072Z,99.90
2018-04-27T05:19:42.313Z,99.90
2018-04-27T05:22:11.345Z,99.90
2018-04-27T05:24:39.620Z,99.90
2018-04-27T05:27:07.869Z,99.90
2018-04-27T05:29:36.882Z,99.90
2018-04-27T05:32:05.175Z,99.90
2018-04-27T05:34:33.484Z,99.90
2018-04-27T05:37:01.766Z,99.90
2018-04-27T05:39:30.000Z,99.90
2018-04-27T05:41:58.287Z,99.90
2018-04-27T05:44:26.634Z,99.90
2018-04-27T05:46:54.888Z,99.90
2018-04-27T05:49:23.959Z,99.90
2018-04-27T05:51:53.071Z,99.90
2018-04-27T05:54:21.350Z,99.90
2018-04-27T05:56:49.605Z,99.90
2018-04-27T05:59:17.886Z,99.90
2018-04-27T06:01:46.117Z,99.90
2018-04-27T06:04:15.000Z,99.90
2018-04-27T06:06:44.022Z,99.90
2018-04-27T06:09:13.039Z,99.90
2018-04-27T06:11:41.290Z,99.90
2018-04-27T06:14:09.626Z,99.90
2018-04-27T06:16:37.857Z,99.90
2018-04-27T06:19:06.165Z,99.90
2018-04-27T06:21:34.393Z,99.90
2018-04-27T06:24:02.675Z,99.90
2018-04-27T06:26:30.917Z,99.90
2018-04-27T06:28:59.970Z,99.90
2018-04-27T06:31:28.197Z,99.90
2018-04-27T06:33:57.207Z,99.90
2018-04-27T06:36:25.490Z,99.90
2018-04-27T06:38:53.736Z,99.90
2018-04-27T06:41:21.983Z,99.90
2018-04-27T06:43:50.233Z,99.90
2018-04-27T06:46:18.500Z,99.90
2018-04-27T06:48:46.810Z,99.90
2018-04-27T06:51:15.067Z,99.90
2018-04-27T06:53:43.343Z,99.90
2018-04-27T06:56:11.591Z,99.90
2018-04-27T06:58:40.620Z,99.90
2018-04-27T07:01:08.875Z,99.90
2018-04-27T07:03:37.383Z,99.90
2018-04-27T07:06:05.671Z,99.90
2018-04-27T07:08:33.941Z,99.90
2018-04-27T07:11:02.291Z,99.90
2018-04-27T07:13:31.353Z,99.90
2018-04-27T07:16:00.415Z,99.90
2018-04-27T07:18:28.698Z,99.90
2018-04-27T07:20:56.953Z,99.90
2018-04-27T07:23:25.208Z,99.90
2018-04-27T07:25:54.311Z,99.90
2018-04-27T07:28:23.310Z,99.90
2018-04-27T07:30:51.616Z,99.90
2018-04-27T07:33:19.895Z,99.90
2018-04-27T07:35:48.137Z,99.90
2018-04-27T07:38:16.388Z,99.90
2018-04-27T07:40:44.651Z,99.90
2018-04-27T07:43:13.816Z,99.90
2018-04-27T07:45:42.075Z,99.90
2018-04-27T07:48:10.322Z,99.90
2018-04-27T07:50:39.385Z,99.90
2018-04-27T07:53:07.706Z,99.90
2018-04-27T07:55:35.943Z,99.90
2018-04-27T07:58:05.012Z,99.90
2018-04-27T08:00:33.318Z,99.90
2018-04-27T08:03:01.569Z,99.90
2018-04-27T08:05:29.845Z,99.90
2018-04-27T08:07:58.115Z,99.90
2018-04-27T08:10:27.220Z,99.90
2018-04-27T08:12:55.465Z,99.90
2018-04-27T08:15:23.775Z,99.90
2018-04-27T08:17:52.041Z,99.90
2018-04-27T08:20:29.968Z,99.90
2018-04-27T08:23:00.026Z,99.90
2018-04-27T08:25:32.972Z,99.90
2018-04-27T08:28:01.262Z,99.90
2018-04-27T08:30:29.580Z,99.90
2018-04-27T08:32:57.868Z,99.90
2018-04-27T08:35:26.920Z,99.00
2018-04-27T08:37:55.175Z,99.00
2018-04-27T08:40:23.431Z,99.00
2018-04-27T08:42:52.240Z,98.80
2018-04-27T08:45:20.488Z,98.60
2018-04-27T08:47:49.505Z,97.80
2018-04-27T08:50:17.948Z,97.80
2018-04-27T08:52:46.885Z,97.90
2018-04-27T08:55:15.197Z,97.80
2018-04-27T08:57:43.439Z,97.70
2018-04-27T09:00:11.726Z,96.80
2018-04-27T09:02:40.149Z,96.90
2018-04-27T09:05:09.110Z,96.10
2018-04-27T09:07:37.356Z,96.00
2018-04-27T09:10:05.603Z,95.70
2018-04-27T09:12:33.931Z,96.00
2018-04-27T09:15:02.220Z,96.30
2018-04-27T09:17:30.509Z,96.70
2018-04-27T09:19:58.778Z,96.20
2018-04-27T09:22:27.089Z,96.10
2018-04-27T09:24:56.288Z,96.10
2018-04-27T09:27:25.325Z,94.80
2018-04-27T09:29:53.587Z,94.80
2018-04-27T09:32:22.655Z,95.20
2018-04-27T09:34:50.849Z,95.20
2018-04-27T09:37:19.873Z,94.60
2018-04-27T09:39:48.122Z,94.60
2018-04-27T09:42:17.175Z,93.50
2018-04-27T09:44:45.635Z,93.50
2018-04-27T09:47:13.921Z,92.80
2018-04-27T09:49:42.199Z,92.80
2018-04-27T09:52:10.512Z,92.10
2018-04-27T09:54:38.728Z,93.30
2018-04-27T09:57:07.025Z,93.20
2018-04-27T09:59:35.279Z,91.80
2018-04-27T10:02:03.556Z,90.80
2018-04-27T10:04:31.824Z,91.20
2018-04-27T10:07:00.929Z,90.40
2018-04-27T10:09:29.241Z,90.30
2018-04-27T10:11:57.550Z,87.60
2018-04-27T10:14:26.244Z,90.10
2018-04-27T10:16:54.499Z,88.90
2018-04-27T10:19:22.757Z,89.10
2018-04-27T10:21:51.047Z,89.80
2018-04-27T10:29:18.433Z,89.00
2018-04-27T10:31:47.360Z,90.00
2018-04-27T10:34:15.589Z,91.20
2018-04-27T10:36:43.920Z,87.40
2018-04-27T10:39:12.929Z,87.20
2018-04-27T10:41:41.960Z,88.60
2018-04-27T10:44:10.549Z,88.60
2018-04-27T10:46:38.832Z,88.30
2018-04-27T10:49:07.108Z,91.20
2018-04-27T10:51:35.463Z,91.40
2018-04-27T10:54:04.500Z,89.50
2018-04-27T10:56:32.746Z,89.50
2018-04-27T10:59:01.799Z,89.00
2018-04-27T11:01:31.491Z,90.50
2018-04-27T11:04:00.410Z,90.50
2018-04-27T11:06:28.747Z,88.00
2018-04-27T11:08:57.056Z,89.10
2018-04-27T11:11:26.732Z,90.00
2018-04-27T11:13:55.885Z,90.00
2018-04-27T11:16:24.166Z,89.80
2018-04-27T11:18:53.209Z,89.30
2018-04-27T11:21:22.268Z,89.10
2018-04-27T11:23:50.608Z,89.10
2018-04-27T11:26:19.683Z,87.40
2018-04-27T11:28:49.543Z,87.40
2018-04-27T11:31:18.578Z,85.60
2018-04-27T11:34:00.131Z,85.60
2018-04-27T11:36:29.757Z,83.60
2018-04-27T11:38:58.124Z,83.50
2018-04-27T11:41:27.145Z,84.80
2018-04-27T11:43:56.476Z,84.90
2018-04-27T11:46:24.842Z,84.30
2018-04-27T11:48:53.131Z,83.20
2018-04-27T11:51:21.811Z,82.80
2018-04-27T11:53:51.973Z,82.90
2018-04-27T11:56:21.012Z,82.40
2018-04-27T11:58:49.681Z,82.90
2018-04-27T12:01:17.970Z,85.70
2018-04-27T12:03:46.356Z,83.50
2018-04-27T12:06:14.624Z,84.60
2018-04-27T12:08:42.912Z,85.10
2018-04-27T12:11:11.234Z,85.80
2018-04-27T12:13:39.481Z,83.60
2018-04-27T12:16:07.811Z,84.70
2018-04-27T12:18:36.117Z,85.20
2018-04-27T12:21:04.388Z,83.60
2018-04-27T12:23:32.807Z,83.10
2018-04-27T12:26:02.247Z,86.10
2018-04-27T12:28:30.593Z,86.10
2018-04-27T12:30:59.069Z,85.10
2018-04-27T12:33:27.349Z,82.40
2018-04-27T12:35:55.745Z,85.10
2018-04-27T12:38:24.000Z,84.50
2018-04-27T12:40:52.271Z,85.10
2018-04-27T12:43:20.551Z,84.00
2018-04-27T12:45:48.841Z,83.80
2018-04-27T12:48:17.144Z,83.30
2018-04-27T12:50:45.440Z,81.50
2018-04-27T12:53:13.746Z,83.20
2018-04-27T12:55:42.020Z,84.00
2018-04-27T12:58:12.327Z,84.30
2018-04-27T13:00:40.660Z,83.20
2018-04-27T13:03:09.752Z,82.10
2018-04-27T13:05:38.042Z,82.10
2018-04-27T13:08:06.653Z,83.40
2018-04-27T13:10:34.944Z,83.70
2018-04-27T13:13:03.916Z,83.60
2018-04-27T13:15:33.827Z,84.10
2018-04-27T13:18:04.616Z,85.80
2018-04-27T13:20:32.906Z,85.40
2018-04-27T13:23:01.264Z,83.20
2018-04-27T13:25:29.542Z,85.40
2018-04-27T13:27:57.799Z,83.80
2018-04-27T13:30:26.873Z,80.80
2018-04-27T13:32:57.311Z,81.20
2018-04-27T13:35:25.596Z,80.60
2018-04-27T13:37:55.458Z,78.80
2018-04-27T13:40:24.594Z,78.80
2018-04-27T13:42:54.545Z,77.20
2018-04-27T13:45:22.896Z,77.20
2018-04-27T13:47:52.132Z,77.70
2018-04-27T13:50:20.432Z,79.20
2018-04-27T13:52:49.451Z,77.80
2018-04-27T13:55:17.924Z,79.20
2018-04-27T13:57:46.212Z,77.20
2018-04-27T14:00:15.239Z,77.90
2018-04-27T14:02:44.734Z,78.30
2018-04-27T14:05:13.044Z,78.30
2018-04-27T14:07:42.063Z,78.70
2018-04-27T14:10:10.404Z,78.70
2018-04-27T14:12:39.086Z,78.90
2018-04-27T14:15:10.073Z,78.00
2018-04-27T14:17:39.614Z,80.20
2018-04-27T14:20:08.672Z,77.80
2018-04-27T14:22:36.987Z,77.80
2018-04-27T14:25:05.256Z,78.10
2018-04-27T14:27:33.548Z,76.80
2018-04-27T14:30:02.591Z,75.40
2018-04-27T14:32:30.831Z,75.40
2018-04-27T14:35:00.861Z,76.90
2018-04-27T14:37:29.980Z,75.90
2018-04-27T14:39:58.625Z,75.90
2018-04-27T14:42:26.891Z,76.10
2018-04-27T14:44:55.370Z,74.40
2018-04-27T14:47:23.622Z,75.20
2018-04-27T14:49:51.904Z,74.30
2018-04-27T14:52:20.222Z,74.60
2018-04-27T14:54:49.303Z,77.40
2018-04-27T14:57:17.717Z,77.40
2018-04-27T14:59:46.019Z,74.80
2018-04-27T15:02:14.285Z,73.80
2018-04-27T15:04:42.605Z,74.00
2018-04-27T15:07:10.921Z,74.30
2018-04-27T15:09:39.984Z,74.70
2018-04-27T15:12:08.318Z,74.70
2018-04-27T15:14:38.304Z,76.00
2018-04-27T15:17:08.206Z,75.80
2018-04-27T15:19:36.480Z,75.70
2018-04-27T15:22:04.966Z,75.80
2018-04-27T15:24:33.873Z,77.10
2018-04-27T15:27:03.221Z,76.20
2018-04-27T15:29:31.528Z,77.00
2018-04-27T15:32:00.575Z,77.00
2018-04-27T15:34:28.949Z,77.00
2018-04-27T15:36:57.283Z,77.90
2018-04-27T15:39:25.589Z,77.30
2018-04-27T15:41:53.889Z,76.90
2018-04-27T15:44:22.245Z,78.20
2018-04-27T15:46:50.550Z,78.70
2018-04-27T15:49:18.859Z,77.50
2018-04-27T15:51:47.196Z,75.30
2018-04-27T15:54:15.450Z,76.10
2018-04-27T15:56:44.484Z,75.70
2018-04-27T15:59:12.729Z,76.30
2018-04-27T16:01:42.165Z,76.00
2018-04-27T16:04:10.499Z,75.40
2018-04-27T16:06:39.594Z,76.60
2018-04-27T16:09:07.959Z,76.60
2018-04-27T16:11:36.181Z,77.30
2018-04-27T16:14:04.480Z,75.40
2018-04-27T16:16:32.771Z,76.30
2018-04-27T16:19:02.647Z,77.00
2018-04-27T16:21:30.960Z,77.00
2018-04-27T16:24:00.345Z,76.00
2018-04-27T16:26:32.484Z,76.30
2018-04-27T16:29:00.767Z,76.60
2018-04-27T16:31:29.710Z,75.60
2018-04-27T16:33:58.766Z,76.00
2018-04-27T16:36:28.574Z,75.50
2018-04-27T16:38:57.645Z,75.50
2018-04-27T16:41:26.327Z,77.20
2018-04-27T16:43:54.587Z,76.40
2018-04-27T16:46:22.919Z,74.90
2018-04-27T16:48:51.967Z,76.90
2018-04-27T16:51:20.961Z,76.90
2018-04-27T16:53:49.236Z,76.40
2018-04-27T16:56:18.337Z,75.40
2018-04-27T16:58:47.020Z,75.30
2018-04-27T17:01:17.054Z,76.70
2018-04-27T17:03:45.484Z,76.10
2018-04-27T17:06:13.666Z,76.70
2018-04-27T17:08:42.043Z,76.70
2018-04-27T17:11:10.323Z,77.50
2018-04-27T17:13:38.612Z,79.20
2018-04-27T17:16:06.881Z,78.40
2018-04-27T17:18:35.214Z,77.10
2018-04-27T17:21:03.502Z,77.10
2018-04-27T17:23:31.854Z,77.60
2018-04-27T17:26:01.163Z,78.90
2018-04-27T17:28:29.603Z,78.20
2018-04-27T17:30:57.859Z,77.60
2018-04-27T17:33:26.217Z,76.20
2018-04-27T17:35:54.636Z,77.30
2018-04-27T17:38:23.021Z,77.60
2018-04-27T17:40:51.393Z,77.60
2018-04-27T17:43:19.854Z,78.20
2018-04-27T17:45:49.283Z,78.30
2018-04-27T17:48:17.529Z,78.20
2018-04-27T17:50:45.796Z,77.90
2018-04-27T17:53:15.294Z,77.70
2018-04-27T17:55:43.791Z,77.70
2018-04-27T17:58:12.037Z,79.90
2018-04-27T18:00:40.330Z,79.40
2018-04-27T18:03:08.642Z,79.50
2018-04-27T18:05:36.924Z,80.20
2018-04-27T18:08:05.577Z,81.00
2018-04-27T18:10:34.714Z,81.10
2018-04-27T18:13:02.973Z,83.00
2018-04-27T18:15:31.260Z,84.90
2018-04-27T18:18:00.370Z,86.30
2018-04-27T18:20:28.670Z,85.40
2018-04-27T18:22:57.131Z,85.10
2018-04-27T18:25:25.373Z,89.90
2018-04-27T18:27:54.551Z,91.60
2018-04-27T18:30:23.665Z,91.00
2018-04-27T18:32:52.742Z,91.80
2018-04-27T18:35:21.035Z,91.80
2018-04-27T18:37:49.404Z,92.80
2018-04-27T18:40:18.455Z,94.60
2018-04-27T18:42:46.757Z,94.60
2018-04-27T18:45:15.015Z,93.80
2018-04-27T18:47:43.327Z,94.40
2018-04-27T18:50:11.650Z,97.00
2018-04-27T18:52:41.321Z,97.20
2018-04-27T18:55:10.379Z,96.50
2018-04-27T18:57:39.747Z,96.50
2018-04-27T19:00:08.613Z,98.70
2018-04-27T19:02:37.922Z,97.80
2018-04-27T19:05:06.978Z,99.30
2018-04-27T19:07:35.545Z,99.20
2018-04-27T19:10:03.827Z,99.90
2018-04-27T19:12:32.184Z,99.90
2018-04-27T19:15:00.541Z,99.90
2018-04-27T19:17:28.903Z,99.90
2018-04-27T19:19:58.880Z,99.90
2018-04-27T19:22:27.660Z,99.90
2018-04-27T19:24:56.996Z,99.90
2018-04-27T19:27:25.410Z,99.90
2018-04-27T19:29:53.748Z,99.90
2018-04-27T19:32:22.038Z,99.90
2018-04-27T19:34:51.182Z,99.90
2018-04-27T19:37:20.236Z,99.90
2018-04-27T19:39:48.628Z,99.90
2018-04-27T19:42:17.687Z,99.90
2018-04-27T19:44:45.994Z,99.90
2018-04-27T19:47:14.347Z,99.90
2018-04-27T19:49:42.683Z,99.90
2018-04-27T19:52:11.211Z,99.90
2018-04-27T19:54:39.588Z,99.90
2018-04-27T19:57:08.082Z,99.90
2018-04-27T19:59:36.474Z,99.90
2018-04-27T20:02:04.875Z,99.90
2018-04-27T20:04:33.217Z,99.90
2018-04-27T20:07:01.648Z,99.90
2018-04-27T20:09:30.805Z,99.90
2018-04-27T20:11:59.197Z,99.90
2018-04-27T20:14:31.288Z,99.90
2018-04-27T20:17:04.244Z,99.90
2018-04-27T20:19:34.807Z,99.90
2018-04-27T20:22:22.831Z,99.90
2018-04-27T20:24:54.407Z,99.90
2018-04-27T20:27:26.877Z,99.90
2018-04-27T20:29:55.919Z,99.90
2018-04-27T20:32:24.240Z,99.90
2018-04-27T20:34:53.338Z,99.90
2018-04-27T20:37:22.422Z,99.90
2018-04-27T20:39:50.738Z,99.90
2018-04-27T20:42:19.769Z,99.90
2018-04-27T20:44:48.213Z,99.90
2018-04-27T20:47:17.296Z,99.90
2018-04-27T20:49:45.666Z,99.90
2018-04-27T20:52:14.058Z,99.90
2018-04-27T20:54:42.651Z,99.90
2018-04-27T20:57:10.965Z,99.90
2018-04-27T20:59:39.388Z,99.90
2018-04-27T21:02:07.697Z,99.90
2018-04-27T21:04:36.025Z,99.90
2018-04-27T21:07:04.313Z,99.90
2018-04-27T21:09:33.499Z,99.90
2018-04-27T21:12:01.776Z,99.90
2018-04-27T21:14:30.072Z,99.90
2018-04-27T21:16:59.118Z,99.90
2018-04-27T21:19:27.453Z,99.90
2018-04-27T21:21:59.443Z,99.90
2018-04-27T21:24:27.830Z,99.90
2018-04-27T21:26:56.115Z,99.90
2018-04-27T21:29:27.222Z,99.90
2018-04-27T21:31:55.485Z,99.90
2018-04-27T21:34:24.533Z,99.90
2018-04-27T21:36:52.830Z,99.90
2018-04-27T21:39:21.174Z,99.90
2018-04-27T21:41:56.941Z,99.90
2018-04-27T21:44:26.094Z,99.90
2018-04-27T21:50:12.239Z,99.90
2018-04-27T21:52:44.218Z,99.90
2018-04-27T21:55:12.518Z,99.90
2018-04-27T21:57:40.813Z,99.90
2018-04-27T22:00:19.531Z,99.90
2018-04-27T22:06:06.254Z,99.90
2018-04-27T22:08:39.512Z,99.90
2018-04-27T22:11:08.709Z,99.90
2018-04-27T22:13:37.023Z,99.90
2018-04-27T22:16:05.375Z,99.90
2018-04-27T22:18:35.193Z,99.90
2018-04-27T22:21:03.502Z,99.90
2018-04-27T22:23:36.915Z,99.90
2018-04-27T22:26:12.285Z,99.90
2018-04-27T22:28:49.379Z,99.90
2018-04-27T22:31:32.880Z,99.90
2018-04-27T22:34:01.981Z,99.90
2018-04-27T22:36:30.805Z,99.90
2018-04-27T22:39:07.807Z,99.90
2018-04-27T22:41:36.330Z,99.90
2018-04-27T22:44:07.469Z,99.90
2018-04-27T22:46:39.328Z,99.90
2018-04-27T22:49:08.469Z,99.90
2018-04-27T22:51:40.178Z,99.90
2018-04-27T22:54:10.162Z,99.90
2018-04-27T22:56:54.105Z,99.90
2018-04-27T22:59:28.314Z,99.90
2018-04-27T23:01:59.943Z,99.90
2018-04-27T23:04:28.188Z,99.90
2018-04-27T23:06:56.484Z,99.90
2018-04-27T23:09:24.765Z,99.90
2018-04-27T23:11:53.041Z,99.90
2018-04-27T23:14:35.113Z,99.90
2018-04-27T23:17:07.209Z,99.90
2018-04-27T23:19:37.801Z,99.90
2018-04-27T23:22:21.844Z,99.90
2018-04-27T23:24:50.090Z,99.90
2018-04-27T23:27:19.145Z,99.90
2018-04-27T23:29:47.493Z,99.90
2018-04-27T23:32:15.788Z,99.90
2018-04-27T23:34:44.072Z,99.90
2018-04-27T23:37:12.478Z,99.90
2018-04-27T23:39:40.720Z,99.90
2018-04-27T23:42:09.026Z,99.90
2018-04-27T23:44:37.303Z,99.90
2018-04-27T23:47:05.573Z,99.90
2018-04-27T23:49:33.860Z,99.90
2018-04-27T23:52:02.178Z,99.90
2018-04-27T23:54:30.460Z,99.90
2018-04-27T23:57:02.327Z,99.90
2018-04-27T23:59:34.578Z,99.90
